createdAt,value
2023-01-28T00:00:12.829Z,3.53
2023-01-28T00:02:41.351Z,3.50
2023-01-28T00:05:10.459Z,4.30
2023-01-28T00:07:38.926Z,3.70
2023-01-28T00:10:08.671Z,4.07
2023-01-28T00:12:37.115Z,4.97
2023-01-28T00:15:08.707Z,4.13
2023-01-28T00:17:37.333Z,4.00
2023-01-28T00:20:06.846Z,3.63
2023-01-28T00:22:35.230Z,3.80
2023-01-28T00:25:03.793Z,3.83
2023-01-28T00:27:32.170Z,4.00
2023-01-28T00:30:00.634Z,4.10
2023-01-28T00:32:30.464Z,4.23
2023-01-28T00:34:58.903Z,4.17
2023-01-28T00:37:27.360Z,4.33
2023-01-28T00:39:55.878Z,3.97
2023-01-28T00:42:26.187Z,4.10
2023-01-28T00:44:57.434Z,4.10
2023-01-28T00:47:25.802Z,3.87
2023-01-28T00:49:56.106Z,4.50
2023-01-28T00:52:24.571Z,3.73
2023-01-28T00:54:52.940Z,3.63
2023-01-28T00:57:21.316Z,4.40
2023-01-28T00:59:49.779Z,3.87
2023-01-28T01:02:20.213Z,3.80
2023-01-28T01:04:59.479Z,3.97
2023-01-28T01:07:42.097Z,3.90
2023-01-28T01:10:12.615Z,3.97
2023-01-28T01:12:41.469Z,4.50
2023-01-28T01:15:13.278Z,4.17
2023-01-28T01:17:45.401Z,4.73
2023-01-28T01:20:17.741Z,4.70
2023-01-28T01:22:47.614Z,4.87
2023-01-28T01:25:18.644Z,4.30
2023-01-28T01:27:49.965Z,4.30
2023-01-28T01:30:21.383Z,3.97
2023-01-28T01:32:49.865Z,4.00
2023-01-28T01:35:18.777Z,3.90
2023-01-28T01:37:48.691Z,3.60
2023-01-28T01:40:17.806Z,3.83
2023-01-28T01:42:46.179Z,4.70
2023-01-28T01:45:17.459Z,4.00
2023-01-28T01:47:53.564Z,3.23
2023-01-28T01:50:29.128Z,4.30
2023-01-28T01:53:03.685Z,3.50
2023-01-28T01:55:37.935Z,4.00
2023-01-28T01:58:12.317Z,3.13
2023-01-28T02:00:41.776Z,4.27
2023-01-28T02:03:11.666Z,3.93
2023-01-28T02:05:41.263Z,3.30
2023-01-28T02:08:26.590Z,4.30
2023-01-28T02:11:01.032Z,4.07
2023-01-28T02:13:34.278Z,3.87
2023-01-28T02:16:04.527Z,3.83
2023-01-28T02:18:34.170Z,3.87
2023-01-28T02:21:55.631Z,4.20
2023-01-28T02:25:09.184Z,4.10
2023-01-28T02:27:52.423Z,4.80
2023-01-28T02:30:29.470Z,4.20
2023-01-28T02:33:02.574Z,4.40
2023-01-28T02:35:36.861Z,4.37
2023-01-28T02:38:11.115Z,4.20
2023-01-28T02:40:57.895Z,3.73
2023-01-28T02:43:37.360Z,4.03
2023-01-28T02:46:37.195Z,3.60
2023-01-28T02:49:11.173Z,5.67
2023-01-28T02:51:59.077Z,4.57
2023-01-28T02:54:39.471Z,4.03
2023-01-28T02:57:22.478Z,4.60
2023-01-28T02:59:59.987Z,4.37
2023-01-28T03:02:37.931Z,4.10
2023-01-28T03:05:13.178Z,4.20
2023-01-28T03:07:42.837Z,4.70
2023-01-28T03:10:17.083Z,4.47
2023-01-28T03:13:05.465Z,4.63
2023-01-28T03:16:00.389Z,4.63
2023-01-28T03:18:52.408Z,4.23
2023-01-28T03:21:44.026Z,5.10
2023-01-28T03:24:36.015Z,5.30
2023-01-28T03:27:33.286Z,4.30
2023-01-28T03:30:32.417Z,5.27
2023-01-28T03:33:25.112Z,5.20
2023-01-28T03:36:11.591Z,5.57
2023-01-28T03:38:43.146Z,5.40
2023-01-28T03:41:21.637Z,5.47
2023-01-28T03:43:50.781Z,4.80
2023-01-28T03:46:18.581Z,5.00
2023-01-28T03:48:48.585Z,4.90
2023-01-28T03:51:17.998Z,5.47
2023-01-28T03:53:46.565Z,4.70
2023-01-28T03:56:19.580Z,4.93
2023-01-28T03:58:53.790Z,5.40
2023-01-28T04:01:22.882Z,4.83
2023-01-28T04:03:52.974Z,5.53
2023-01-28T04:06:29.005Z,5.30
2023-01-28T04:09:09.890Z,4.03
2023-01-28T04:12:02.650Z,4.67
2023-01-28T04:14:37.208Z,4.07
2023-01-28T04:17:10.905Z,4.83
2023-01-28T04:19:42.005Z,4.13
2023-01-28T04:22:12.563Z,4.93
2023-01-28T04:24:42.566Z,4.90
2023-01-28T04:27:11.000Z,5.07
2023-01-28T04:29:39.559Z,4.20
2023-01-28T04:32:34.157Z,4.40
2023-01-28T04:35:09.425Z,4.43
2023-01-28T04:37:49.623Z,4.47
2023-01-28T04:40:38.298Z,5.07
2023-01-28T04:43:12.117Z,4.40
2023-01-28T04:45:53.013Z,5.00
2023-01-28T04:48:36.601Z,4.23
2023-01-28T04:51:18.059Z,3.77
2023-01-28T04:54:05.270Z,3.77
2023-01-28T04:56:36.046Z,4.10
2023-01-28T04:59:05.700Z,4.40
2023-01-28T05:01:35.869Z,4.47
2023-01-28T05:04:06.442Z,3.50
2023-01-28T05:06:39.628Z,4.17
2023-01-28T05:09:11.837Z,4.20
2023-01-28T05:11:40.346Z,3.90
2023-01-28T05:14:09.732Z,4.73
2023-01-28T05:16:45.033Z,5.17
2023-01-28T05:19:13.880Z,3.70
2023-01-28T05:21:45.330Z,4.10
2023-01-28T05:24:25.304Z,3.60
2023-01-28T05:26:55.095Z,3.70
2023-01-28T05:29:23.479Z,3.20
2023-01-28T05:31:51.894Z,3.67
2023-01-28T05:34:20.934Z,4.07
2023-01-28T05:36:51.229Z,3.70
2023-01-28T05:39:33.877Z,3.50
2023-01-28T05:42:02.434Z,3.40
2023-01-28T05:44:31.549Z,4.10
2023-01-28T05:47:26.156Z,3.67
2023-01-28T05:50:19.607Z,3.80
2023-01-28T05:53:09.131Z,3.50
2023-01-28T05:55:39.423Z,3.70
2023-01-28T05:58:07.936Z,3.93
2023-01-28T06:00:36.882Z,7.37
2023-01-28T06:03:06.549Z,4.50
2023-01-28T06:05:36.979Z,4.53
2023-01-28T06:08:06.517Z,4.70
2023-01-28T06:10:36.355Z,5.13
2023-01-28T06:13:05.771Z,3.50
2023-01-28T06:15:53.050Z,3.60
2023-01-28T06:18:44.780Z,3.40
2023-01-28T06:21:13.361Z,3.57
2023-01-28T06:23:42.193Z,2.87
2023-01-28T06:26:12.031Z,3.80
2023-01-28T06:28:42.886Z,3.47
2023-01-28T06:31:11.349Z,3.87
2023-01-28T06:33:39.848Z,3.03
2023-01-28T06:36:09.483Z,3.37
2023-01-28T06:38:37.894Z,3.50
2023-01-28T06:41:06.751Z,3.30
2023-01-28T06:43:37.244Z,3.43
2023-01-28T06:46:06.228Z,2.43
2023-01-28T06:48:34.827Z,2.63
2023-01-28T06:51:03.196Z,3.50
2023-01-28T06:53:31.608Z,3.93
2023-01-28T06:55:59.964Z,4.20
2023-01-28T06:58:28.305Z,2.97
2023-01-28T07:00:58.049Z,3.10
2023-01-28T07:03:26.543Z,3.10
2023-01-28T07:05:55.019Z,3.10
2023-01-28T07:08:23.469Z,3.20
2023-01-28T07:10:51.871Z,3.40
2023-01-28T07:13:20.358Z,3.53
2023-01-28T07:15:49.758Z,2.90
2023-01-28T07:18:19.703Z,3.30
2023-01-28T07:20:48.074Z,3.00
2023-01-28T07:23:16.561Z,2.70
2023-01-28T07:25:44.967Z,3.10
2023-01-28T07:28:13.308Z,3.60
2023-01-28T07:30:41.788Z,3.50
2023-01-28T07:33:10.153Z,3.20
2023-01-28T07:35:39.850Z,4.20
2023-01-28T07:38:08.193Z,3.10
2023-01-28T07:40:36.781Z,3.00
2023-01-28T07:43:07.211Z,2.87
2023-01-28T07:45:39.899Z,3.40
2023-01-28T07:48:11.563Z,3.13
2023-01-28T07:50:41.612Z,3.60
2023-01-28T07:53:12.384Z,3.23
2023-01-28T07:55:41.186Z,3.07
2023-01-28T07:58:12.948Z,3.17
2023-01-28T08:00:41.397Z,3.53
2023-01-28T08:03:15.780Z,3.20
2023-01-28T08:05:47.823Z,2.80
2023-01-28T08:08:16.802Z,3.00
2023-01-28T08:10:45.946Z,2.93
2023-01-28T08:13:15.760Z,3.30
2023-01-28T08:15:45.081Z,2.63
2023-01-28T08:18:15.780Z,3.00
2023-01-28T08:20:47.754Z,3.77
2023-01-28T08:23:17.923Z,2.57
2023-01-28T08:25:47.053Z,2.83
2023-01-28T08:28:17.641Z,2.93
2023-01-28T08:30:46.428Z,3.03
2023-01-28T08:33:18.008Z,2.80
2023-01-28T08:35:48.157Z,3.37
2023-01-28T08:38:17.728Z,3.50
2023-01-28T08:40:46.185Z,3.47
2023-01-28T08:43:14.602Z,3.83
2023-01-28T08:45:43.361Z,3.20
2023-01-28T08:48:16.889Z,2.97
2023-01-28T08:50:47.155Z,3.80
2023-01-28T08:53:18.960Z,3.13
2023-01-28T08:55:48.269Z,3.73
2023-01-28T08:58:18.383Z,3.43
2023-01-28T09:00:48.388Z,3.80
2023-01-28T09:03:17.373Z,3.43
2023-01-28T09:05:49.589Z,3.43
2023-01-28T09:08:18.116Z,3.43
2023-01-28T09:10:46.559Z,4.23
2023-01-28T09:13:17.136Z,4.30
2023-01-28T09:15:45.580Z,4.53
2023-01-28T09:18:14.097Z,3.90
2023-01-28T09:20:42.683Z,2.73
2023-01-28T09:23:12.993Z,3.90
2023-01-28T09:25:41.578Z,3.43
2023-01-28T09:28:10.132Z,3.90
2023-01-28T09:30:39.720Z,3.03
2023-01-28T09:33:09.294Z,3.80
2023-01-28T09:35:37.989Z,4.37
2023-01-28T09:38:06.527Z,3.77
2023-01-28T09:40:41.362Z,3.30
2023-01-28T09:43:54.722Z,3.40
2023-01-28T09:46:23.337Z,3.70
2023-01-28T09:48:54.462Z,3.53
2023-01-28T09:51:34.921Z,3.83
2023-01-28T09:54:08.722Z,4.10
2023-01-28T09:56:46.143Z,3.80
2023-01-28T09:59:20.824Z,3.70
2023-01-28T10:01:56.772Z,4.07
2023-01-28T10:04:45.749Z,4.20
2023-01-28T10:07:30.831Z,3.97
2023-01-28T10:10:06.182Z,3.60
2023-01-28T10:13:10.603Z,4.00
2023-01-28T10:15:56.869Z,3.93
2023-01-28T10:18:35.987Z,3.80
2023-01-28T10:21:12.076Z,4.63
2023-01-28T10:23:49.804Z,4.17
2023-01-28T10:26:25.144Z,3.73
2023-01-28T10:29:07.710Z,4.03
2023-01-28T10:31:41.615Z,3.83
2023-01-28T10:34:12.130Z,4.40
2023-01-28T10:36:40.937Z,4.10
2023-01-28T10:39:12.424Z,3.60
2023-01-28T10:41:52.031Z,3.50
2023-01-28T10:44:34.217Z,3.47
2023-01-28T10:47:11.424Z,3.63
2023-01-28T10:49:45.465Z,4.23
2023-01-28T10:52:14.987Z,3.47
2023-01-28T10:54:43.629Z,3.90
2023-01-28T10:57:15.524Z,3.57
2023-01-28T10:59:45.622Z,3.73
2023-01-28T11:02:38.346Z,3.70
2023-01-28T11:05:17.199Z,3.83
2023-01-28T11:07:45.739Z,3.60
2023-01-28T11:10:32.382Z,4.03
2023-01-28T11:13:03.407Z,3.30
2023-01-28T11:15:34.862Z,3.93
2023-01-28T11:18:09.623Z,3.43
2023-01-28T11:20:43.803Z,3.53
2023-01-28T11:23:22.734Z,4.00
2023-01-28T11:26:01.406Z,3.60
2023-01-28T11:28:31.021Z,4.27
2023-01-28T11:31:03.315Z,3.20
2023-01-28T11:33:38.586Z,3.50
2023-01-28T11:36:15.797Z,3.10
2023-01-28T11:38:56.103Z,3.30
2023-01-28T11:41:30.533Z,3.60
2023-01-28T11:44:01.837Z,3.43
2023-01-28T11:47:01.436Z,4.20
2023-01-28T11:49:50.730Z,4.20
2023-01-28T11:52:29.588Z,4.17
2023-01-28T11:55:26.029Z,4.10
2023-01-28T11:58:04.803Z,4.10
2023-01-28T12:00:41.770Z,4.37
2023-01-28T12:03:40.415Z,3.50
2023-01-28T12:06:36.811Z,4.03
2023-01-28T12:09:16.618Z,3.80
2023-01-28T12:12:12.607Z,3.50
2023-01-28T12:15:11.648Z,2.80
2023-01-28T12:17:57.971Z,2.90
2023-01-28T12:20:33.095Z,3.70
2023-01-28T12:23:21.855Z,4.30
2023-01-28T12:26:05.954Z,3.30
2023-01-28T12:28:55.909Z,3.90
2023-01-28T12:32:01.788Z,3.27
2023-01-28T12:34:55.004Z,3.83
2023-01-28T12:37:41.496Z,3.30
2023-01-28T12:40:34.725Z,3.70
2023-01-28T12:43:09.966Z,2.63
2023-01-28T12:45:42.774Z,2.93
2023-01-28T12:48:16.914Z,3.07
2023-01-28T12:50:50.455Z,3.07
2023-01-28T12:53:28.524Z,3.43
2023-01-28T12:56:07.640Z,3.10
2023-01-28T12:58:44.392Z,3.70
2023-01-28T13:01:21.310Z,3.20
2023-01-28T13:03:57.142Z,3.13
2023-01-28T13:06:33.213Z,2.90
2023-01-28T13:09:15.302Z,4.30
2023-01-28T13:11:44.296Z,3.60
2023-01-28T13:14:14.501Z,3.13
2023-01-28T13:16:43.067Z,3.30
2023-01-28T13:19:25.741Z,3.40
2023-01-28T13:21:54.370Z,3.90
2023-01-28T13:24:34.064Z,3.03
2023-01-28T13:27:16.404Z,3.60
2023-01-28T13:29:50.660Z,4.00
2023-01-28T13:32:35.779Z,4.40
2023-01-28T13:35:08.542Z,3.77
2023-01-28T13:37:41.382Z,3.50
2023-01-28T13:40:27.445Z,2.80
2023-01-28T13:43:03.673Z,3.00
2023-01-28T13:45:33.573Z,2.43
2023-01-28T13:48:26.402Z,2.40
2023-01-28T13:50:55.725Z,2.23
2023-01-28T13:53:37.968Z,2.43
2023-01-28T13:56:19.597Z,2.80
2023-01-28T13:59:35.748Z,2.23
2023-01-28T14:02:54.481Z,2.63
2023-01-28T14:05:52.378Z,1.80
2023-01-28T14:09:04.587Z,2.43
2023-01-28T14:12:31.483Z,2.03
2023-01-28T14:15:49.272Z,2.27
2023-01-28T14:18:27.733Z,3.70
2023-01-28T14:20:58.945Z,2.50
2023-01-28T14:23:31.264Z,2.90
2023-01-28T14:26:17.873Z,2.77
2023-01-28T14:29:00.550Z,2.40
2023-01-28T14:31:35.370Z,2.17
2023-01-28T14:34:12.578Z,4.27
2023-01-28T14:36:45.054Z,3.00
2023-01-28T14:39:19.184Z,2.67
2023-01-28T14:41:50.908Z,2.60
2023-01-28T14:44:33.118Z,2.93
2023-01-28T14:47:38.001Z,2.53
2023-01-28T14:50:49.031Z,2.27
2023-01-28T14:53:49.850Z,2.60
2023-01-28T14:56:35.732Z,2.77
2023-01-28T14:59:17.775Z,1.73
2023-01-28T15:01:50.345Z,1.80
2023-01-28T15:04:27.533Z,3.20
2023-01-28T15:06:56.533Z,2.93
2023-01-28T15:09:25.929Z,2.20
2023-01-28T15:11:58.122Z,4.00
2023-01-28T15:14:31.666Z,2.27
2023-01-28T15:17:02.759Z,3.03
2023-01-28T15:19:35.132Z,2.83
2023-01-28T15:22:06.833Z,2.20
2023-01-28T15:24:36.920Z,2.67
2023-01-28T15:27:05.648Z,2.87
2023-01-28T15:29:36.609Z,2.47
2023-01-28T15:32:07.237Z,2.60
2023-01-28T15:34:38.146Z,2.17
2023-01-28T15:37:06.677Z,2.27
2023-01-28T15:39:35.201Z,2.77
2023-01-28T15:42:07.346Z,2.77
2023-01-28T15:44:39.053Z,2.60
2023-01-28T15:47:17.713Z,2.27
2023-01-28T15:49:50.409Z,2.50
2023-01-28T15:52:19.808Z,3.97
2023-01-28T15:54:52.521Z,3.60
2023-01-28T15:57:22.468Z,4.00
2023-01-28T15:59:51.881Z,3.63
2023-01-28T16:02:24.337Z,2.43
2023-01-28T16:05:03.863Z,3.20
2023-01-28T16:07:36.040Z,3.40
2023-01-28T16:10:05.692Z,3.10
2023-01-28T16:12:34.274Z,3.00
2023-01-28T16:15:04.234Z,2.70
2023-01-28T16:17:42.768Z,3.33
2023-01-28T16:20:23.627Z,2.80
2023-01-28T16:22:53.221Z,3.40
2023-01-28T16:25:30.379Z,3.47
2023-01-28T16:28:00.435Z,3.30
2023-01-28T16:30:30.040Z,3.60
2023-01-28T16:33:00.422Z,2.77
2023-01-28T16:35:47.309Z,2.90
2023-01-28T16:38:19.885Z,3.97
2023-01-28T16:40:49.352Z,5.67
2023-01-28T16:43:18.952Z,3.83
2023-01-28T16:45:47.940Z,3.90
2023-01-28T16:48:17.886Z,3.90
2023-01-28T16:50:46.990Z,4.10
2023-01-28T16:53:22.606Z,5.23
2023-01-28T16:55:52.840Z,4.50
2023-01-28T16:58:25.534Z,4.97
2023-01-28T17:00:54.299Z,5.30
2023-01-28T17:03:24.977Z,4.90
2023-01-28T17:05:53.716Z,4.77
2023-01-28T17:08:22.200Z,4.87
2023-01-28T17:10:54.306Z,6.07
2023-01-28T17:13:23.201Z,5.37
2023-01-28T17:15:51.779Z,5.07
2023-01-28T17:18:20.250Z,6.23
2023-01-28T17:20:50.221Z,4.27
2023-01-28T17:23:22.905Z,4.53
2023-01-28T17:25:51.809Z,5.10
2023-01-28T17:28:20.629Z,5.97
2023-01-28T17:30:49.045Z,6.00
2023-01-28T17:33:17.460Z,7.90
2023-01-28T17:35:49.292Z,7.70
2023-01-28T17:38:17.942Z,6.80
2023-01-28T17:40:46.372Z,7.00
2023-01-28T17:43:14.750Z,6.57
2023-01-28T17:45:43.240Z,6.80
2023-01-28T17:48:12.617Z,6.00
2023-01-28T17:50:41.555Z,6.30
2023-01-28T17:53:12.151Z,6.80
2023-01-28T17:55:40.989Z,5.90
2023-01-28T17:58:09.342Z,6.83
2023-01-28T18:00:37.755Z,6.73
2023-01-28T18:03:06.334Z,8.37
2023-01-28T18:05:34.699Z,4.63
2023-01-28T18:08:03.095Z,5.13
2023-01-28T18:10:32.882Z,5.17
2023-01-28T18:13:01.422Z,6.03
2023-01-28T18:15:30.095Z,6.97
2023-01-28T18:17:58.560Z,7.33
2023-01-28T18:20:26.955Z,6.23
2023-01-28T18:22:55.451Z,5.30
2023-01-28T18:25:24.060Z,5.87
2023-01-28T18:27:54.192Z,6.87
2023-01-28T18:30:22.763Z,6.10
2023-01-28T18:32:51.419Z,6.60
2023-01-28T18:35:19.922Z,5.43
2023-01-28T18:37:48.380Z,6.93
2023-01-28T18:40:17.034Z,5.93
2023-01-28T18:42:45.497Z,6.30
2023-01-28T18:45:15.649Z,5.90
2023-01-28T18:47:44.160Z,5.17
2023-01-28T18:50:12.569Z,4.57
2023-01-28T18:52:41.039Z,5.33
2023-01-28T18:55:11.317Z,5.50
2023-01-28T18:57:39.753Z,5.83
2023-01-28T19:00:10.196Z,6.57
2023-01-28T19:02:40.162Z,5.70
2023-01-28T19:05:09.418Z,6.10
2023-01-28T19:07:38.046Z,6.97
2023-01-28T19:10:08.350Z,7.43
2023-01-28T19:12:36.760Z,7.07
2023-01-28T19:15:06.180Z,6.37
2023-01-28T19:17:35.549Z,6.03
2023-01-28T19:20:06.709Z,5.67
2023-01-28T19:22:35.142Z,6.43
2023-01-28T19:25:03.538Z,6.23
2023-01-28T19:27:31.945Z,7.00
2023-01-28T19:30:00.413Z,6.60
2023-01-28T19:32:28.977Z,7.60
2023-01-28T19:34:57.446Z,7.80
2023-01-28T19:37:27.390Z,7.80
2023-01-28T19:39:55.817Z,7.30
2023-01-28T19:42:24.357Z,6.73
2023-01-28T19:44:53.480Z,6.80
2023-01-28T19:47:22.189Z,6.93
2023-01-28T19:49:50.621Z,6.67
2023-01-28T19:52:19.088Z,5.40
2023-01-28T19:54:49.906Z,4.90
2023-01-28T19:57:18.605Z,4.33
2023-01-28T19:59:46.926Z,6.00
2023-01-28T20:02:15.464Z,5.60
2023-01-28T20:04:59.608Z,5.37
2023-01-28T20:07:29.021Z,5.70
2023-01-28T20:09:58.775Z,5.30
2023-01-28T20:12:27.238Z,5.97
2023-01-28T20:14:55.623Z,6.00
2023-01-28T20:17:24.087Z,5.53
2023-01-28T20:19:52.457Z,6.70
2023-01-28T20:22:20.870Z,6.20
2023-01-28T20:24:54.669Z,6.83
2023-01-28T20:27:25.186Z,6.77
2023-01-28T20:29:53.873Z,6.43
2023-01-28T20:32:23.193Z,6.80
2023-01-28T20:34:53.028Z,6.50
2023-01-28T20:37:21.919Z,7.40
2023-01-28T20:39:50.334Z,7.10
2023-01-28T20:42:18.753Z,7.33
2023-01-28T20:44:48.507Z,6.43
2023-01-28T20:47:16.898Z,6.10
2023-01-28T20:49:45.322Z,6.30
2023-01-28T20:52:13.693Z,6.83
2023-01-28T20:54:42.048Z,5.40
2023-01-28T20:57:10.407Z,5.70
2023-01-28T20:59:38.815Z,5.53
2023-01-28T21:02:10.034Z,5.73
2023-01-28T21:04:38.508Z,6.00
2023-01-28T21:07:06.939Z,5.77
2023-01-28T21:09:35.387Z,5.37
2023-01-28T21:12:03.796Z,6.57
2023-01-28T21:14:32.175Z,5.90
2023-01-28T21:17:00.754Z,4.70
2023-01-28T21:19:30.627Z,4.70
2023-01-28T21:21:58.991Z,5.13
2023-01-28T21:24:27.386Z,5.63
2023-01-28T21:26:55.935Z,6.17
2023-01-28T21:29:24.456Z,4.43
2023-01-28T21:31:52.916Z,5.50
2023-01-28T21:34:21.384Z,5.53
2023-01-28T21:36:51.328Z,5.17
2023-01-28T21:39:19.791Z,5.70
2023-01-28T21:41:49.170Z,6.60
2023-01-28T21:44:17.578Z,5.67
2023-01-28T21:46:47.737Z,5.33
2023-01-28T21:49:16.151Z,5.37
2023-01-28T21:51:47.205Z,5.40
2023-01-28T21:54:19.134Z,5.33
2023-01-28T21:56:49.796Z,5.70
2023-01-28T21:59:32.495Z,6.43
2023-01-28T22:02:02.758Z,5.53
2023-01-28T22:04:33.701Z,5.87
2023-01-28T22:07:03.561Z,6.37
2023-01-28T22:09:34.688Z,5.73
2023-01-28T22:12:05.123Z,6.87
2023-01-28T22:14:33.690Z,7.10
2023-01-28T22:17:02.204Z,6.87
2023-01-28T22:19:30.878Z,6.53
2023-01-28T22:21:59.281Z,7.10
2023-01-28T22:24:29.052Z,7.23
2023-01-28T22:27:01.809Z,7.20
2023-01-28T22:29:30.220Z,6.00
2023-01-28T22:31:58.723Z,7.13
2023-01-28T22:34:28.137Z,6.87
2023-01-28T22:36:56.628Z,6.60
2023-01-28T22:39:25.065Z,7.30
2023-01-28T22:41:53.506Z,7.57
2023-01-28T22:44:23.498Z,7.53
2023-01-28T22:46:51.949Z,6.60
2023-01-28T22:49:22.063Z,6.70
2023-01-28T22:51:50.516Z,6.77
2023-01-28T22:54:18.852Z,6.57
2023-01-28T22:56:47.258Z,5.90
2023-01-28T22:59:15.712Z,7.97
2023-01-28T23:01:45.483Z,6.67
2023-01-28T23:04:13.979Z,7.20
2023-01-28T23:06:42.413Z,7.83
2023-01-28T23:09:11.009Z,6.53
2023-01-28T23:11:39.786Z,7.70
2023-01-28T23:14:25.495Z,6.77
2023-01-28T23:17:12.881Z,6.03
2023-01-28T23:19:58.804Z,6.30
2023-01-28T23:22:50.579Z,6.23
2023-01-28T23:25:20.593Z,5.53
2023-01-28T23:27:49.256Z,6.53
2023-01-28T23:30:19.844Z,6.87
2023-01-28T23:32:50.848Z,7.50
2023-01-28T23:35:20.576Z,6.27
2023-01-28T23:37:49.628Z,6.70
2023-01-28T23:40:18.981Z,6.40
2023-01-28T23:42:50.546Z,5.83
2023-01-28T23:45:19.402Z,6.23
2023-01-28T23:47:49.447Z,5.80
2023-01-28T23:50:18.817Z,7.00
2023-01-28T23:52:47.495Z,7.20
2023-01-28T23:55:16.543Z,6.30
2023-01-28T23:57:44.959Z,5.60
